Harpster, Ohio
Current Conditions -  °F | °C
As of 9:53 AM on Sunday 23 Nov 2014 (Local Time) from KMNN Reporting Station
Broken Clouds Broken Clouds  
Wind Chill: 50°   Ceiling: 2600
Heat Index: 50°   Visibility: 10mi
Dew Point: 39°   Wind: 12mph
Humidity: 66%   Direction: 170°S
Pressure: 29.98"   Gusts: NA
Location:  40.74°N, 83.25°W
Report Text: KMNN 231453Z AUTO 17010KT 10SM BKN026 10/04 A2998 RMK AO2 RAE02 SLP157 P0000 60000 T01000039 58005 TSNO
Loading
Personal Weather Stations






























Interactive Weather Map New forecast layout! Learn more

10-Day Weather Forecast

Advertisements
Track Severe Weather on mobile